Terminal Aerodrome Forecast
Issued by NWS

Home | Current Version | Previous Version | Text Only | Print | Product List | Glossary On
Versions: 1 2 3 4 5 6 7 8 9 10 11 12 13
000
FTUS41 KLWX 271726
TAFMTN
TAF
KMTN 271726Z 2718/2818 11005KT P6SM FEW050
     FM280900 VRB03KT 5SM BR BKN015
     FM281100 VRB03KT 3SM BR BKN008
     FM281300 VRB03KT P6SM SCT030=

USA.gov is the U.S. government's official web portal to all federal, state and local government web resources and services.